createdAt,value
2019-03-18T00:00:50.227Z,66.50
2019-03-18T00:03:21.406Z,66.40
2019-03-18T00:05:53.007Z,66.20
2019-03-18T00:08:24.635Z,65.70
2019-03-18T00:10:55.383Z,65.40
2019-03-18T00:13:26.968Z,65.00
2019-03-18T00:15:57.802Z,65.10
2019-03-18T00:18:28.764Z,64.50
2019-03-18T00:20:59.195Z,64.60
2019-03-18T00:23:29.787Z,65.10
2019-03-18T00:26:01.398Z,65.10
2019-03-18T00:28:32.358Z,64.00
2019-03-18T00:31:03.130Z,65.10
2019-03-18T00:33:33.578Z,64.90
2019-03-18T00:36:04.115Z,64.40
2019-03-18T00:38:36.646Z,64.10
2019-03-18T00:41:07.221Z,64.00
2019-03-18T00:43:38.113Z,64.30
2019-03-18T00:46:08.728Z,64.90
2019-03-18T00:48:39.434Z,64.40
2019-03-18T00:51:10.496Z,63.60
2019-03-18T00:53:41.087Z,63.80
2019-03-18T00:56:11.635Z,63.00
2019-03-18T00:58:42.329Z,63.60
2019-03-18T01:01:13.040Z,64.10
2019-03-18T01:03:44.147Z,63.40
2019-03-18T01:06:15.215Z,62.50
2019-03-18T01:08:46.818Z,63.00
2019-03-18T01:11:17.197Z,62.80
2019-03-18T01:13:51.849Z,62.40
2019-03-18T01:16:22.279Z,62.40
2019-03-18T01:18:53.490Z,62.60
2019-03-18T01:21:33.697Z,62.60
2019-03-18T01:24:05.311Z,62.20
2019-03-18T01:26:35.787Z,62.10
2019-03-18T01:29:06.207Z,62.80
2019-03-18T01:31:36.675Z,62.50
2019-03-18T01:34:07.154Z,62.50
2019-03-18T01:36:37.829Z,62.50
2019-03-18T01:39:08.790Z,61.70
2019-03-18T01:58:12.407Z,62.10
2019-03-18T02:00:42.809Z,62.50
2019-03-18T02:03:13.736Z,62.70
2019-03-18T02:05:52.737Z,62.60
2019-03-18T02:08:26.003Z,62.50
2019-03-18T02:10:57.299Z,61.80
2019-03-18T02:13:27.967Z,61.70
2019-03-18T02:15:58.868Z,61.60
2019-03-18T02:18:30.489Z,62.30
2019-03-18T02:21:07.342Z,62.30
2019-03-18T02:23:38.441Z,62.80
2019-03-18T02:26:08.961Z,63.10
2019-03-18T02:28:42.924Z,62.30
2019-03-18T02:31:13.336Z,62.00
2019-03-18T02:33:44.812Z,62.90
2019-03-18T02:36:15.200Z,62.80
2019-03-18T02:38:45.841Z,62.50
2019-03-18T02:41:16.360Z,62.40
2019-03-18T02:43:47.402Z,62.60
2019-03-18T02:46:17.911Z,62.60
2019-03-18T02:48:51.133Z,62.20
2019-03-18T02:51:21.794Z,62.80
2019-03-18T02:53:53.831Z,62.80
2019-03-18T02:56:26.405Z,63.10
2019-03-18T02:58:56.886Z,62.90
2019-03-18T03:01:30.707Z,63.10
2019-03-18T03:04:01.307Z,63.00
2019-03-18T03:06:33.233Z,63.00
2019-03-18T03:09:07.371Z,62.70
2019-03-18T03:11:37.926Z,62.60
2019-03-18T03:14:09.518Z,63.20
2019-03-18T03:16:47.396Z,63.10
2019-03-18T03:19:18.338Z,62.30
2019-03-18T03:21:49.868Z,62.80
2019-03-18T03:24:20.238Z,62.50
2019-03-18T03:26:51.188Z,62.10
2019-03-18T03:29:21.738Z,62.00
2019-03-18T03:31:52.558Z,61.20
2019-03-18T03:34:23.166Z,61.50
2019-03-18T03:36:59.925Z,61.70
2019-03-18T03:39:30.648Z,61.60
2019-03-18T03:42:01.628Z,61.80
2019-03-18T03:44:32.195Z,61.40
2019-03-18T03:47:02.825Z,62.10
2019-03-18T03:49:34.143Z,62.20
2019-03-18T03:52:06.054Z,62.40
2019-03-18T03:54:36.407Z,62.00
2019-03-18T03:57:07.245Z,62.00
2019-03-18T03:59:39.762Z,62.40
2019-03-18T04:02:10.199Z,62.60
2019-03-18T04:04:41.538Z,61.50
2019-03-18T04:07:16.569Z,62.00
2019-03-18T04:09:46.056Z,62.30
2019-03-18T04:12:16.815Z,62.20
2019-03-18T04:14:47.583Z,62.30
2019-03-18T04:17:18.079Z,62.70
2019-03-18T04:19:55.857Z,62.40
2019-03-18T04:22:26.323Z,61.80
2019-03-18T04:24:57.472Z,61.30
2019-03-18T04:27:28.482Z,61.80
2019-03-18T04:29:59.372Z,61.40
2019-03-18T04:32:30.273Z,61.20
2019-03-18T04:35:00.809Z,62.00
2019-03-18T04:37:32.364Z,62.20
2019-03-18T04:40:03.490Z,61.20
2019-03-18T04:42:34.102Z,62.00
2019-03-18T04:45:06.254Z,62.20
2019-03-18T04:47:37.111Z,61.00
2019-03-18T04:50:08.327Z,61.60
2019-03-18T04:52:40.001Z,61.70
2019-03-18T04:55:14.229Z,61.50
2019-03-18T04:57:44.781Z,61.40
2019-03-18T05:00:15.135Z,60.80
2019-03-18T05:02:45.669Z,61.00
2019-03-18T05:05:16.668Z,61.20
2019-03-18T05:07:47.181Z,60.80
2019-03-18T05:10:17.649Z,61.10
2019-03-18T05:12:49.664Z,61.30
2019-03-18T05:15:20.221Z,61.70
2019-03-18T05:17:51.926Z,62.20
2019-03-18T05:20:22.377Z,62.50
2019-03-18T05:22:53.842Z,61.20
2019-03-18T05:25:24.809Z,61.40
2019-03-18T05:27:55.581Z,61.80
2019-03-18T05:30:28.538Z,61.80
2019-03-18T05:33:01.671Z,62.10
2019-03-18T05:35:31.385Z,61.70
2019-03-18T05:38:02.060Z,61.90
2019-03-18T05:40:32.981Z,60.80
2019-03-18T05:43:04.066Z,61.00
2019-03-18T05:45:36.146Z,61.80
2019-03-18T05:48:07.430Z,62.10
2019-03-18T05:50:39.059Z,61.50
2019-03-18T05:53:11.811Z,61.10
2019-03-18T05:55:42.470Z,62.20
2019-03-18T05:58:13.041Z,61.60
2019-03-18T06:00:43.452Z,61.90
2019-03-18T06:03:14.210Z,62.50
2019-03-18T06:05:46.846Z,61.60
2019-03-18T06:08:20.256Z,61.50
2019-03-18T06:10:52.604Z,61.30
2019-03-18T06:13:24.120Z,61.30
2019-03-18T06:15:59.476Z,60.60
2019-03-18T06:18:30.595Z,60.50
2019-03-18T06:21:05.647Z,60.60
2019-03-18T06:23:39.377Z,62.10
2019-03-18T06:26:10.358Z,62.70
2019-03-18T06:28:43.896Z,63.50
2019-03-18T06:31:13.720Z,63.20
2019-03-18T06:33:44.746Z,62.70
2019-03-18T06:36:15.396Z,62.10
2019-03-18T06:38:46.772Z,62.00
2019-03-18T06:41:17.496Z,61.50
2019-03-18T06:43:48.202Z,61.10
2019-03-18T06:46:20.402Z,60.80
2019-03-18T06:48:54.354Z,60.80
2019-03-18T06:51:25.417Z,60.60
2019-03-18T06:53:56.219Z,60.60
2019-03-18T06:56:27.895Z,60.30
2019-03-18T06:58:58.672Z,60.60
2019-03-18T07:01:31.168Z,60.60
2019-03-18T07:04:03.902Z,60.60
2019-03-18T07:06:34.434Z,60.80
2019-03-18T07:09:07.533Z,60.80
2019-03-18T07:11:39.854Z,60.70
2019-03-18T07:14:10.295Z,59.80
2019-03-18T07:16:43.478Z,61.00
2019-03-18T07:19:16.573Z,60.60
2019-03-18T07:21:48.767Z,60.80
2019-03-18T07:24:19.129Z,59.80
2019-03-18T07:26:53.426Z,59.80
2019-03-18T07:29:25.205Z,60.80
2019-03-18T07:31:55.985Z,61.00
2019-03-18T07:34:28.985Z,61.40
2019-03-18T07:37:02.314Z,61.20
2019-03-18T07:39:32.704Z,60.00
2019-03-18T07:46:27.829Z,59.90
2019-03-18T07:49:19.237Z,60.20
2019-03-18T07:51:51.076Z,60.40
2019-03-18T07:55:26.335Z,61.50
2019-03-18T07:58:30.374Z,60.90
2019-03-18T08:04:37.386Z,60.80
2019-03-18T08:07:58.953Z,60.90
2019-03-18T08:11:30.974Z,61.60
2019-03-18T08:15:27.410Z,61.60
2019-03-18T08:19:14.939Z,61.70
2019-03-18T08:29:26.606Z,62.80
2019-03-18T08:32:16.303Z,62.90
2019-03-18T08:34:42.629Z,63.40
2019-03-18T08:37:57.438Z,64.20
2019-03-18T08:41:12.441Z,64.40
2019-03-18T08:44:53.061Z,64.60
2019-03-18T08:47:35.917Z,64.50
2019-03-18T08:50:52.853Z,64.20
2019-03-18T08:54:38.683Z,64.20
2019-03-18T08:57:07.443Z,65.00
2019-03-18T09:00:04.306Z,65.50
2019-03-18T09:02:46.653Z,64.80
2019-03-18T09:05:17.390Z,64.20
2019-03-18T09:08:04.300Z,65.00
2019-03-18T09:10:32.454Z,65.30
2019-03-18T09:13:13.809Z,65.10
2019-03-18T09:15:54.922Z,65.50
2019-03-18T09:18:25.618Z,65.30
2019-03-18T09:20:55.763Z,64.80
2019-03-18T09:23:29.821Z,64.80
2019-03-18T09:26:20.419Z,65.40
2019-03-18T09:28:50.572Z,65.20
2019-03-18T09:34:29.862Z,65.30
2019-03-18T09:37:00.323Z,65.10
2019-03-18T09:39:30.524Z,64.60
2019-03-18T09:42:01.392Z,64.80
2019-03-18T09:44:35.230Z,64.40
2019-03-18T09:47:28.297Z,64.00
2019-03-18T09:50:00.172Z,64.90
2019-03-18T09:52:38.763Z,64.20
2019-03-18T09:58:26.302Z,63.70
2019-03-18T10:00:58.969Z,63.30
2019-03-18T10:07:55.528Z,62.80
2019-03-18T10:10:25.711Z,62.50
2019-03-18T10:12:55.867Z,61.80
2019-03-18T10:15:26.003Z,61.00
2019-03-18T10:18:09.486Z,61.80
2019-03-18T10:20:38.695Z,62.50
2019-03-18T10:23:17.054Z,61.90
2019-03-18T10:26:02.860Z,61.20
2019-03-18T10:28:33.123Z,60.30
2019-03-18T10:31:03.261Z,59.60
2019-03-18T10:33:33.619Z,59.50
2019-03-18T10:36:16.889Z,58.90
2019-03-18T10:38:47.417Z,58.80
2019-03-18T10:41:20.634Z,58.60
2019-03-18T10:44:21.257Z,58.30
2019-03-18T10:46:48.693Z,59.40
2019-03-18T10:49:28.162Z,58.40
2019-03-18T10:51:59.546Z,57.10
2019-03-18T10:54:32.388Z,57.00
2019-03-18T10:57:04.185Z,58.30
2019-03-18T10:59:34.448Z,56.90
2019-03-18T11:02:24.149Z,56.40
2019-03-18T11:05:08.030Z,55.70
2019-03-18T13:34:56.170Z,53.50
2019-03-18T13:37:26.877Z,54.20
2019-03-18T13:39:57.383Z,53.40
2019-03-18T13:42:27.623Z,53.10
2019-03-18T13:45:01.821Z,53.00
2019-03-18T13:47:34.706Z,53.40
2019-03-18T13:50:11.382Z,53.20
2019-03-18T13:52:52.767Z,53.20
2019-03-18T13:55:36.227Z,53.10
2019-03-18T13:58:08.606Z,52.90
2019-03-18T14:00:44.928Z,53.00
2019-03-18T14:03:16.020Z,54.00
2019-03-18T14:05:49.404Z,53.20
2019-03-18T14:08:22.002Z,53.00
2019-03-18T14:10:55.553Z,53.00
2019-03-18T14:13:36.734Z,53.20
2019-03-18T14:16:07.525Z,53.00
2019-03-18T14:18:40.421Z,52.70
2019-03-18T14:21:13.925Z,54.00
2019-03-18T14:23:44.645Z,52.80
2019-03-18T14:26:15.242Z,52.60
2019-03-18T14:28:47.664Z,52.90
2019-03-18T14:31:18.279Z,53.20
2019-03-18T14:33:52.473Z,53.10
2019-03-18T14:36:23.600Z,53.10
2019-03-18T14:39:00.505Z,53.50
2019-03-18T14:41:32.591Z,53.70
2019-03-18T14:44:04.810Z,53.90
2019-03-18T14:46:39.357Z,54.60
2019-03-18T14:49:09.982Z,54.20
2019-03-18T14:51:46.021Z,54.80
2019-03-18T14:54:14.881Z,54.50
2019-03-18T14:56:45.877Z,54.30
2019-03-18T14:59:19.455Z,53.40
2019-03-18T15:01:57.202Z,52.90
2019-03-18T15:04:30.670Z,52.80
2019-03-18T15:07:05.509Z,52.70
2019-03-18T15:09:37.039Z,53.30
2019-03-18T15:12:11.363Z,53.00
2019-03-18T15:14:43.483Z,52.70
2019-03-18T15:17:17.316Z,52.60
2019-03-18T15:20:01.146Z,52.60
2019-03-18T15:22:52.244Z,52.90
2019-03-18T15:25:31.331Z,52.70
2019-03-18T15:28:07.444Z,52.70
2019-03-18T15:30:40.744Z,53.00
2019-03-18T15:33:14.377Z,52.70
2019-03-18T15:35:47.531Z,52.50
2019-03-18T15:38:23.838Z,52.80
2019-03-18T15:41:02.151Z,52.90
2019-03-18T15:43:34.559Z,53.50
2019-03-18T15:46:06.180Z,54.20
2019-03-18T15:48:37.849Z,54.90
2019-03-18T15:51:22.752Z,55.60
2019-03-18T15:53:54.202Z,56.50
2019-03-18T15:56:31.187Z,56.80
2019-03-18T15:59:04.769Z,57.30
2019-03-18T16:01:38.243Z,57.70
2019-03-18T16:04:09.533Z,57.90
2019-03-18T16:06:40.282Z,58.30
2019-03-18T16:09:14.257Z,58.40
2019-03-18T16:11:52.368Z,58.60
2019-03-18T16:14:31.802Z,58.80
2019-03-18T16:17:02.884Z,58.80
2019-03-18T16:19:37.968Z,58.80
2019-03-18T16:22:22.712Z,59.10
2019-03-18T16:24:52.659Z,59.20
2019-03-18T16:27:25.627Z,59.30
2019-03-18T16:30:05.440Z,59.10
2019-03-18T16:32:40.191Z,59.00
2019-03-18T16:35:16.260Z,59.00
2019-03-18T16:37:52.988Z,59.30
2019-03-18T16:40:27.824Z,59.50
2019-03-18T16:43:09.333Z,59.50
2019-03-18T16:45:47.157Z,59.80
2019-03-18T16:48:22.769Z,59.50
2019-03-18T16:50:55.309Z,59.40
2019-03-18T16:53:39.370Z,59.40
2019-03-18T16:56:11.227Z,59.40
2019-03-18T16:59:10.769Z,59.60
2019-03-18T17:01:41.952Z,60.30
2019-03-18T17:04:33.245Z,60.80
2019-03-18T17:07:16.888Z,59.80
2019-03-18T17:09:52.258Z,59.70
2019-03-18T17:16:35.819Z,60.40
2019-03-18T17:19:23.094Z,60.60
2019-03-18T17:22:48.104Z,60.70
2019-03-18T17:25:16.183Z,60.50
2019-03-18T17:33:30.543Z,59.70
2019-03-18T17:36:03.815Z,60.50
2019-03-18T17:39:20.714Z,60.70
2019-03-18T17:42:31.581Z,59.90
2019-03-18T17:45:28.049Z,59.90
2019-03-18T17:48:51.056Z,60.50
2019-03-18T17:51:23.354Z,60.90
2019-03-18T17:53:54.982Z,60.70
2019-03-18T17:56:30.513Z,60.40
2019-03-18T17:59:01.311Z,60.90
2019-03-18T18:01:32.551Z,60.50
2019-03-18T18:04:07.284Z,60.10
2019-03-18T18:06:49.561Z,59.80
2019-03-18T18:09:30.790Z,60.50
2019-03-18T18:12:06.290Z,60.30
2019-03-18T18:14:43.655Z,60.70
2019-03-18T18:17:21.590Z,61.00
2019-03-18T18:19:55.580Z,60.50
2019-03-18T18:22:26.141Z,60.60
2019-03-18T18:25:03.470Z,59.90
2019-03-18T18:27:36.204Z,60.70
2019-03-18T18:30:08.012Z,60.90
2019-03-18T18:32:39.146Z,60.80
2019-03-18T18:35:10.602Z,60.00
2019-03-18T18:37:46.081Z,59.70
2019-03-18T18:40:16.831Z,60.40
2019-03-18T18:42:48.687Z,61.10
2019-03-18T18:45:24.600Z,60.50
2019-03-18T18:48:06.940Z,59.90
2019-03-18T18:50:44.255Z,60.10
2019-03-18T18:53:29.129Z,60.80
2019-03-18T18:59:06.328Z,60.40
2019-03-18T19:02:18.072Z,60.90
2019-03-18T19:04:58.516Z,61.20
2019-03-18T19:07:30.185Z,61.50
2019-03-18T19:10:04.562Z,61.00
2019-03-18T19:12:37.994Z,60.70
2019-03-18T19:15:38.769Z,61.30
2019-03-18T19:18:37.684Z,61.40
2019-03-18T19:24:50.723Z,60.50
2019-03-18T19:27:31.060Z,60.60
2019-03-18T19:30:07.765Z,60.30
2019-03-18T19:32:42.618Z,59.80
2019-03-18T19:35:18.157Z,60.50
2019-03-18T19:37:55.559Z,60.60
2019-03-18T19:40:36.101Z,60.30
2019-03-18T19:43:09.258Z,59.70
2019-03-18T19:54:50.189Z,62.30
2019-03-18T19:57:20.938Z,62.10
2019-03-18T19:59:51.576Z,61.40
2019-03-18T20:02:22.707Z,61.00
2019-03-18T20:04:53.322Z,60.40
2019-03-18T20:07:23.891Z,60.80
2019-03-18T20:09:54.107Z,61.80
2019-03-18T20:12:24.717Z,62.00
2019-03-18T20:14:55.038Z,62.30
2019-03-18T20:17:25.823Z,61.90
2019-03-18T20:19:57.632Z,61.70
2019-03-18T20:22:27.880Z,61.90
2019-03-18T20:24:58.144Z,62.00
2019-03-18T20:27:28.660Z,62.00
2019-03-18T20:29:59.276Z,62.00
2019-03-18T20:32:29.823Z,61.60
2019-03-18T20:35:00.560Z,61.80
2019-03-18T20:37:31.118Z,62.00
2019-03-18T20:40:01.457Z,61.80
2019-03-18T20:42:32.403Z,61.30
2019-03-18T20:45:02.935Z,62.20
2019-03-18T20:47:34.120Z,61.40
2019-03-18T20:50:06.052Z,61.70
2019-03-18T20:52:37.006Z,61.80
2019-03-18T20:55:07.320Z,61.50
2019-03-18T20:57:37.649Z,61.70
2019-03-18T21:00:08.842Z,62.70
2019-03-18T21:02:39.819Z,62.10
2019-03-18T21:05:10.045Z,62.60
2019-03-18T21:07:40.734Z,62.20
2019-03-18T21:10:11.554Z,62.00
2019-03-18T21:12:41.811Z,62.20
2019-03-18T21:15:12.535Z,62.00
2019-03-18T21:17:43.096Z,61.20
2019-03-18T21:20:14.875Z,61.20
2019-03-18T21:22:45.061Z,61.10
2019-03-18T21:25:15.802Z,61.70
2019-03-18T21:27:46.637Z,61.80
2019-03-18T21:30:17.008Z,62.00
2019-03-18T21:32:48.446Z,62.30
2019-03-18T21:35:19.667Z,62.20
2019-03-18T21:37:49.901Z,61.70
2019-03-18T21:40:20.103Z,62.20
2019-03-18T21:42:50.651Z,62.00
2019-03-18T21:45:23.531Z,62.10
2019-03-18T21:47:54.765Z,61.70
2019-03-18T21:50:25.315Z,61.80
2019-03-18T21:52:55.598Z,62.00
2019-03-18T21:55:26.779Z,61.50
2019-03-18T21:57:57.023Z,61.40
2019-03-18T22:00:27.310Z,61.10
2019-03-18T22:02:57.966Z,61.50
2019-03-18T22:05:28.443Z,62.00
2019-03-18T22:07:58.718Z,61.40
2019-03-18T22:10:29.307Z,61.30
2019-03-18T22:12:59.515Z,61.40
2019-03-18T22:15:29.791Z,61.70
2019-03-18T22:18:00.055Z,61.50
2019-03-18T22:20:30.132Z,61.00
2019-03-18T22:23:01.676Z,61.50
2019-03-18T22:25:34.654Z,62.10
2019-03-18T22:28:04.723Z,62.00
2019-03-18T22:30:34.918Z,62.20
2019-03-18T22:33:05.133Z,62.10
2019-03-18T22:35:36.154Z,62.10
2019-03-18T22:38:06.412Z,62.10
2019-03-18T22:40:37.096Z,62.20
2019-03-18T22:43:07.815Z,62.20
2019-03-18T22:45:38.315Z,62.40
2019-03-18T22:48:09.274Z,62.40
2019-03-18T22:50:39.980Z,61.50
2019-03-18T22:53:12.947Z,60.80
2019-03-18T22:55:43.622Z,61.30
2019-03-18T22:58:13.860Z,62.20
2019-03-18T23:00:49.988Z,62.40
2019-03-18T23:03:22.959Z,62.20
2019-03-18T23:05:53.272Z,61.70
2019-03-18T23:08:23.748Z,60.90
2019-03-18T23:10:55.970Z,61.20
2019-03-18T23:13:26.234Z,60.50
2019-03-18T23:15:56.935Z,60.50
2019-03-18T23:18:27.214Z,61.20
2019-03-18T23:20:58.670Z,61.30
2019-03-18T23:23:30.051Z,61.30
2019-03-18T23:26:00.418Z,61.40
2019-03-18T23:28:31.520Z,61.60
2019-03-18T23:31:02.395Z,62.60
2019-03-18T23:33:32.979Z,61.70
2019-03-18T23:36:03.296Z,62.00
2019-03-18T23:38:34.227Z,61.60
2019-03-18T23:41:04.520Z,61.10
2019-03-18T23:43:35.712Z,60.80
2019-03-18T23:46:06.989Z,60.40
2019-03-18T23:48:37.378Z,60.90
2019-03-18T23:51:08.468Z,61.30
2019-03-18T23:53:38.751Z,60.90
2019-03-18T23:56:08.937Z,61.30
2019-03-18T23:58:39.581Z,61.40
